x

Gravelly Shoals Light Mi (gslm4) Weather Station

11:40am - Fri 24th Mar 2017 All times are CDT. -5 hours from GMT.

  • Wind
    3mph, 5mph gusts
  • Air Temp 41°f
  • Sea Pressure 1014.2mb
  • Gravelly Shoals Light Mi
  • Gravelly Shoals Light Mi

More Historic Weather Station data

Upgrade to MSW Pro to gain access to the past 30 days of data for over 8000 Wavebouys and Weather Stations around the globe.

Join Pro

Comparision Forecast

View Surf forecast
   
Fri 03/24 11:40am 3 5 mph 1014.2mb 41f
11:20am  -  mph 1014.6mb 44f
11:10am  -  2 mph 1014.6mb 41f
11:00am 1 2 mph 1014.6mb 42f
10:40am 1 2 mph 1014.2mb 42f
10:30am 1 3 mph 1014.6mb 41f
10:20am 3 5 mph 1014.6mb 41f
10:19am 3 9 mph 1014.6mb 42f
10:10am  -  2 mph 1014.6mb 42f
10:00am 1 5 mph 1014.6mb 41f
9:40am 7 8 mph 1014.6mb 40f
9:30am 7 9 mph 1014.6mb 40f
9:20am 9 10 mph 1014.6mb 39f
9:18am 9 14 mph 1014.6mb 39f
9:10am 5 13 mph 1014.9mb 38f
9:00am 11
mph
1014.9mb 38f
8:40am 13 14 mph 1013.9mb 38f
8:30am 13
mph
1013.9mb 38f
8:20am 11 15 mph 1014.2mb 38f
8:18am 13 18 mph 1014.6mb 38f
8:10am 15 17 mph 1014.6mb 38f
8:00am 17 18 mph 1014.6mb 37f
7:40am 16 17 mph 1014.9mb 38f
7:30am 16
mph
1014.9mb 38f
7:20am 14
mph
1014.9mb 38f
7:17am 13
mph
1014.9mb 38f
7:10am 11
mph
1015.2mb 37f
7:00am 9 10 mph 1015.2mb 36f
6:40am 5
mph
1015.6mb 35f
6:30am 3 5 mph 1015.2mb 35f
6:20am 2
mph
1015.6mb 35f
6:17am 2 13 mph 1015.6mb 35f
6:00am 2 3 mph 1015.6mb 36f
5:40am 2 9 mph 1015.6mb 36f
5:30am 8 13 mph 1014.9mb 36f
5:20am 11
mph
1014.6mb 36f
5:17am 9 13 mph 1014.9mb 36f
5:10am 9 11 mph 1014.9mb 36f
5:00am 11 13 mph 1014.9mb 36f
4:40am 10 13 mph 1015.2mb 36f
4:30am 11 13 mph 1015.2mb 36f
4:20am 8 10 mph 1015.9mb 36f
4:16am 7 14 mph 1015.9mb 36f
4:10am 10 13 mph 1015.9mb 36f
4:00am 6 9 mph 1015.9mb 36f
3:40am 7 8 mph 1016.6mb 36f
3:30am 5 14 mph 1016.6mb 36f
3:20am 9 17 mph 1016.6mb 36f
3:16am 9 20 mph 1016.9mb 36f
3:10am 16 20 mph 1016.3mb 36f
3:00am 17 20 mph 1016.3mb 36f
2:40am 16 17 mph 1016.6mb 36f
2:30am 15 17 mph 1016.9mb 36f
2:20am 13 15 mph 1017.3mb 36f
2:15am 14 24 mph 1017.3mb 36f
2:10am 16 18 mph 1017.3mb 36f
2:00am 17 18 mph 1017.3mb 36f
1:40am 22 24 mph 1017.3mb 36f
1:30am 20 23 mph 1017.9mb 36f
1:20am 21 22 mph 1018.6mb 36f
1:15am 21 22 mph 1018.6mb 36f
1:10am 20 21 mph 1018.6mb 36f
1:00am 20 21 mph 1018.6mb 36f
12:40am 18 21 mph 1019.3mb 36f
12:30am 21 22 mph 1018.6mb 36f
12:20am 20
mph
1018.6mb 36f
12:15am 17 18 mph 1019.3mb 36f
12:10am 16 18 mph 1019.3mb 36f
12:00am 14 16 mph 1019.6mb 36f
Thu 03/23 11:40pm 11 13 mph 1020mb 35f
11:30pm 10
mph
1020.7mb 36f
11:20pm 9 11 mph 1021.3mb 36f
11:14pm 10 21 mph 1021.3mb 36f
11:10pm 10
mph
1021.3mb 36f
11:00pm 9 10 mph 1021.7mb 35f
10:40pm 14 15 mph 1021.7mb 35f
10:30pm 15 20 mph 1021.7mb 36f
10:20pm 18 21 mph 1021.7mb 36f
10:14pm 20 22 mph 1021.7mb 36f
10:10pm 20 22 mph 1021.7mb 36f
10:00pm 18 21 mph 1022.4mb 36f
9:40pm 20 22 mph 1023mb 36f
9:30pm 20 22 mph 1022.7mb 36f
9:20pm 20 23 mph 1023mb 36f
9:13pm 22 25 mph 1023mb 36f
9:10pm 21 25 mph 1022.7mb 36f
9:00pm 22 24 mph 1022.7mb 36f
8:40pm 22 24 mph 1022.4mb 36f
8:30pm 23 25 mph 1022.4mb 35f
8:20pm 22 24 mph 1022.4mb 36f
8:13pm 20 24 mph 1022.7mb 36f
8:10pm 21 24 mph 1022.7mb 36f
8:00pm 21 24 mph 1023mb 36f
7:40pm 22 24 mph 1023.7mb 36f
7:20pm 21 24 mph 1024mb 36f
7:13pm 22 24 mph 1024mb 37f
7:10pm 22 23 mph 1024mb 37f
7:00pm 20 22 mph 1024.7mb 37f
6:30pm 20 21 mph 1025.1mb 38f
6:20pm 17 20 mph 1025.4mb 38f
6:12pm 15 17 mph 1025.4mb 37f
6:10pm 15 16 mph 1025.4mb 37f
6:00pm 11 13 mph 1025.4mb 36f
5:40pm 6 8 mph 1025.7mb 36f
5:30pm 3 6 mph 1026.1mb 35f
5:20pm 5
mph
1026.1mb 34f
5:12pm 2 8 mph 1026.1mb 35f
5:10pm 2 6 mph 1026.1mb 35f
5:00pm 6 7 mph 1026.1mb 35f
4:40pm 7
mph
1026.4mb 33f
4:30pm 3
mph
1026.8mb 34f
4:20pm 3 5 mph 1027.1mb 34f
4:11pm 3 6 mph 1027.1mb 34f
4:10pm 3
mph
1027.1mb 34f
4:00pm 3
mph
1027.1mb 34f
3:40pm 3 6 mph 1027.1mb 33f
3:30pm 5 6 mph 1027.4mb 33f
3:20pm 1 3 mph 1027.8mb 33f
3:11pm 3
mph
1027.8mb 33f
3:10pm 3
mph
1027.8mb 33f
3:00pm 2 3 mph 1028.1mb 33f
2:40pm 1 3 mph 1028.1mb 33f
2:30pm 3
mph
1028.8mb 33f
2:20pm  -  2 mph 1028.8mb 33f
2:10pm 2 5 mph 1029.1mb 32f
2:00pm 1 2 mph 1029.5mb 32f
1:40pm 2 3 mph 1030.1mb 32f
1:30pm 3 5 mph 1030.5mb 32f
1:20pm 3 5 mph 1030.8mb 32f
1:10pm 1 7 mph 1031.2mb 34f
1:00pm 1 5 mph 1031.5mb 34f
12:40pm 5 7 mph 1031.5mb 34f
12:30pm 3 7 mph 1031.8mb 34f
12:20pm 2 7 mph 1032.2mb 34f
12:10pm 8 10 mph 1032.2mb 33f
12:00pm 8 10 mph 1032.5mb 33f
11:50am 7 10 mph 1032.5mb 33f
11:40am 7 10 mph 1032.5mb 32f
11:30am 5 7 mph 1033.2mb 31f
11:20am 5 9 mph 1033.2mb 31f
11:10am 5 11 mph 1033.2mb 31f
11:09am 3 17 mph 1033.2mb 31f
11:00am 7 11 mph 1033.5mb 30f
10:50am 8 14 mph 1033.5mb 30f
10:40am 11 15 mph 1033.9mb 30f
10:30am 11 16 mph 1033.9mb 29f
10:20am 13 17 mph 1033.9mb 29f
10:10am 10 16 mph 1033.9mb 29f
10:09am 10 20 mph 1033.9mb 29f
10:00am 11 20 mph 1034.2mb 29f
9:50am 14 17 mph 1034.2mb 28f
9:40am 13 17 mph 1034.2mb 29f
9:30am 14 18 mph 1034.2mb 29f
9:20am 13 17 mph 1034.2mb 29f
9:10am 10 17 mph 1034.5mb 29f
9:08am 11 17 mph 1034.5mb 29f
9:00am 10 16 mph 1034.5mb 29f
8:40am 7 13 mph 1034.9mb 29f
8:30am 6 10 mph 1034.5mb 29f
8:20am 7 11 mph 1034.5mb 29f
8:10am 7 10 mph 1034.5mb 29f
8:08am 6 11 mph 1034.5mb 29f
8:00am 2 8 mph 1034.9mb 28f
7:50am 2 7 mph 1034.5mb 28f
7:40am 2 10 mph 1034.9mb 28f
7:30am 5 8 mph 1034.5mb 29f
7:20am 3 10 mph 1034.5mb 28f
7:10am 6 11 mph 1034.5mb 28f
7:08am 6 11 mph 1034.5mb 28f
7:00am 6 9 mph 1034.2mb 28f
6:50am 6 9 mph 1034.2mb 28f
6:40am 3 11 mph 1034.2mb 27f
6:30am 3 9 mph 1033.9mb 27f
6:20am 2 7 mph 1033.9mb 27f
6:10am 2 10 mph 1033.9mb 28f
6:07am 2 14 mph 1033.9mb 28f
6:00am 3 9 mph 1033.9mb 28f
5:50am  -  13 mph 1033.9mb 28f
5:40am 7 14 mph 1033.9mb 28f
5:30am 6 13 mph 1033.9mb 28f
5:20am 3 13 mph 1033.9mb 28f
5:10am 2 8 mph 1033.5mb 28f
5:07am 2 11 mph 1033.5mb 28f
5:00am 5 11 mph 1033.9mb 28f
4:50am 2 8 mph 1033.5mb 28f
4:40am 2 7 mph 1033.2mb 28f
4:30am 2 7 mph 1033.5mb 28f
4:20am 5 11 mph 1033.2mb 28f
4:10am 3 10 mph 1033.2mb 28f
4:06am 5 13 mph 1033.2mb 28f
4:00am 3 8 mph 1033.2mb 28f
3:50am 5 8 mph 1033.2mb 28f
3:40am 2 8 mph 1033.5mb 29f
3:20am 1 13 mph 1033.5mb 29f
3:10am 7 11 mph 1033.9mb 29f
3:06am 5 10 mph 1033.9mb 29f
3:00am 3 9 mph 1033.9mb 28f
2:50am 1 7 mph 1033.9mb 28f
2:40am 2 6 mph 1033.9mb 28f
2:30am  -  8 mph 1034.2mb 28f
2:20am 3 9 mph 1034.2mb 28f
2:10am 7 9 mph 1034.2mb 28f
2:06am 2 14 mph 1034.2mb 28f
2:00am 2 7 mph 1034.2mb 28f
1:50am 6 14 mph 1034.5mb 28f
1:40am 11 14 mph 1034.5mb 28f
1:30am 10 13 mph 1034.5mb 28f
1:20am 5 10 mph 1034.2mb 29f
1:10am 5 9 mph 1034.2mb 29f
1:05am 1 11 mph 1034.2mb 29f
1:00am 3 11 mph 1034.2mb 29f
12:50am 2 9 mph 1034.2mb 29f
12:40am 5 9 mph 1033.9mb 29f
12:30am 7 11 mph 1033.9mb 28f
12:20am 6 10 mph 1033.9mb 29f
12:10am 1 6 mph 1033.9mb 29f
12:05am 2 13 mph 1033.9mb 29f
12:00am 1 5 mph 1033.9mb 29f
Wed 03/22 11:50pm 1 7 mph 1033.9mb 29f
11:40pm 5 11 mph 1033.9mb 29f
11:30pm 8 11 mph 1033.9mb 29f
11:20pm 8 13 mph 1033.9mb 29f
11:10pm 10 13 mph 1033.9mb 29f
11:04pm 7 17 mph 1033.9mb 29f
11:00pm 6 11 mph 1033.9mb 29f
10:50pm 9 13 mph 1033.9mb 28f
10:40pm 10 15 mph 1034.2mb 28f
10:30pm 10 17 mph 1034.2mb 28f
10:20pm 15 16 mph 1034.2mb 28f
10:04pm 10 16 mph 1034.2mb 28f
10:00pm 9 15 mph 1034.2mb 28f
9:50pm 7 13 mph 1034.2mb 28f
9:40pm 7 14 mph 1034.2mb 28f
9:30pm 9 14 mph 1034.2mb 28f
9:20pm 9 16 mph 1034.2mb 28f
9:10pm 14 16 mph 1034.2mb 28f
9:04pm 15 18 mph 1034.2mb 29f
9:00pm 14 18 mph 1034.2mb 29f
8:40pm 14 17 mph 1034.2mb 29f
8:30pm 14 15 mph 1034.2mb 29f
8:20pm 13 17 mph 1033.9mb 29f
8:10pm 13 16 mph 1034.2mb 29f
8:03pm 11 15 mph 1033.9mb 29f
8:00pm 11 15 mph 1033.9mb 29f
7:50pm 8 13 mph 1034.2mb 28f
7:40pm 8 14 mph 1033.9mb 28f
7:30pm 9 13 mph 1034.2mb 28f
7:20pm 10 13 mph 1034.2mb 27f
7:10pm 8 14 mph 1034.2mb 27f
7:03pm 11 14 mph 1034.5mb 27f
7:00pm 9 14 mph 1034.5mb 27f
6:50pm 8 13 mph 1034.2mb 27f
6:02pm 8 13 mph 1034.5mb 27f
5:50pm 9 10 mph 1034.5mb 27f
5:40pm 9 10 mph 1034.5mb 26f
5:30pm 9 11 mph 1034.5mb 25f
5:20pm 10 13 mph 1034.5mb 25f
5:10pm 9 11 mph 1034.5mb 25f
5:02pm 10 13 mph 1034.5mb 24f
5:00pm 10 11 mph 1034.5mb 24f
4:40pm 9 11 mph 1034.9mb 24f
4:30pm 9 11 mph 1035.2mb 24f
4:20pm 10 13 mph 1035.2mb 23f
4:10pm 9 13 mph 1035.6mb 23f
4:02pm 11 13 mph 1035.6mb 23f
4:00pm 10 13 mph 1035.6mb 23f
3:50pm 9 13 mph 1035.6mb 22f
3:40pm 10 11 mph 1035.9mb 22f
3:30pm 9 11 mph 1035.9mb 22f
3:20pm 6 10 mph 1036.2mb 22f
3:10pm 7 9 mph 1036.2mb 22f
3:01pm 8 11 mph 1036.2mb 22f
3:00pm 8 11 mph 1035.9mb 22f
2:40pm 8 10 mph 1035.9mb 21f
2:30pm 6 9 mph 1035.9mb 21f
2:20pm 6 8 mph 1035.9mb 21f
2:10pm 5 8 mph 1035.9mb 21f
2:01pm 5 10 mph 1035.9mb 21f
2:00pm 5 7 mph 1035.9mb 21f
1:50pm 6 7 mph 1035.9mb 21f
1:40pm 6 8 mph 1036.2mb 21f
1:30pm 7 10 mph 1036.2mb 21f
1:20pm 8 10 mph 1036.2mb 21f
1:10pm 8 9 mph 1035.9mb 21f
1:00pm 5 10 mph 1036.2mb 21f
12:50pm 6 9 mph 1036.2mb 21f
12:40pm 6 9 mph 1036.2mb 20f
12:30pm 8 10 mph 1036.2mb 21f
12:20pm 8 9 mph 1036.2mb 21f
12:10pm 7 9 mph 1036.2mb 20f
12:00pm 8 11 mph 1036.6mb 20f
11:50am 8 10 mph 1036.6mb 20f
11:40am 9 11 mph 1036.6mb 20f
11:20am 7 10 mph 1036.6mb 20f
11:10am 9 11 mph 1036.6mb 20f
11:00am 9 17 mph 1036.6mb 20f
10:50am 9 13 mph 1036.6mb 20f
10:40am 8 11 mph 1036.6mb 19f
10:30am 8 13 mph 1036.6mb 19f
10:20am 9 13 mph 1036.6mb 19f
10:10am 10 14 mph 1036.6mb 19f
10:00am 10 17 mph 1036.6mb 19f
9:50am 8 15 mph 1036.2mb 19f
9:40am 11 16 mph 1036.2mb 19f
9:30am 11 17 mph 1036.2mb 19f
9:25am 15 20 mph 1036.2mb 19f
9:20am 13 17 mph 1036.2mb 19f
9:10am 16 20 mph 1035.9mb 19f
9:00am 14 17 mph 1035.6mb 19f
8:50am 14 17 mph 1035.2mb 19f
8:40am 15 18 mph 1035.2mb 19f
8:30am 14 20 mph 1035.2mb 19f
8:25am 13 24 mph 1035.2mb 19f
8:20am 17 20 mph 1035.2mb 19f
8:10am 17 22 mph 1034.9mb 19f
8:00am 15 24 mph 1035.2mb 19f
7:50am 18 22 mph 1034.9mb 19f
7:40am 18 23 mph 1034.9mb 19f
7:30am 17 22 mph 1034.5mb 19f
7:25am 20 25 mph 1034.5mb 19f
7:20am 21 23 mph 1034.2mb 19f
7:10am 20 25 mph 1034.2mb 19f
7:00am 21 23 mph 1033.9mb 19f
6:50am 18 25 mph 1033.9mb 20f
6:40am 18 23 mph 1033.5mb 19f
6:30am 17 24 mph 1033.5mb 20f
6:24am 20 26 mph 1033.2mb 20f
6:20am 20 23 mph 1032.8mb 20f
6:00am 18 24 mph 1032.8mb 20f
5:50am 22 26 mph 1032.5mb 20f
5:40am 18 24 mph 1032.5mb 20f
5:30am 18 22 mph 1032.2mb 20f
5:24am 18 25 mph 1032.2mb 20f
5:20am 18 23 mph 1032.2mb 20f
5:10am 18 24 mph 1032.2mb 20f
5:00am 21 25 mph 1031.8mb 21f
4:50am 20 25 mph 1031.8mb 21f
4:40am 22 24 mph 1031.5mb 21f
4:30am 20 22 mph 1031.5mb 21f
4:23am 18 26 mph 1031.2mb 21f
4:20am 16 23 mph 1031.2mb 21f
4:10am 18 24 mph 1031.2mb 21f
4:00am 20 26 mph 1031.2mb 21f
3:50am 22 26 mph 1030.8mb 21f
3:40am 21 25 mph 1030.8mb 21f
3:30am 18 26 mph 1030.8mb 21f
3:23am 21 28 mph 1030.8mb 22f
3:20am 18 25 mph 1030.8mb 22f
3:10am 21 25 mph 1030.5mb 21f
3:00am 21 25 mph 1030.5mb 21f
2:50am 23 28 mph 1030.5mb 21f
2:40am 20 26 mph 1030.1mb 22f
2:30am 22 25 mph 1030.1mb 21f
2:23am 21 29 mph 1029.8mb 22f
2:20am 24 26 mph 1029.8mb 22f
2:10am 20 25 mph 1029.8mb 21f
2:00am 22 28 mph 1029.5mb 21f
1:50am 21 26 mph 1029.5mb 22f
1:40am 24 29 mph 1029.8mb 22f
1:30am 22 25 mph 1029.5mb 22f
1:22am 20
mph
1029.5mb 22f
1:20am 21 28 mph 1029.1mb 22f
1:10am 20 25 mph 1029.1mb 22f
1:00am 18 25 mph 1029.1mb 22f
12:40am 24 30 mph 1028.8mb 22f
12:38am 24 30 mph 1028.4mb 22f
12:30am 22 30 mph 1028.4mb 22f
12:22am 24
mph
1028.4mb 22f
12:20am 24 30 mph 1028.4mb 22f
12:10am 28 32 mph 1028.1mb 22f
12:00am 26 32 mph 1028.4mb 22f
Tue 03/21 11:50pm 29 37 mph 1027.8mb 22f
11:40pm 28 31 mph 1027.8mb 22f
11:34pm 22 30 mph 1027.8mb 23f
11:30pm 20 28 mph 1027.8mb 23f
11:20pm 22 26 mph 1027.8mb 23f
11:10pm 23 25 mph 1027.1mb 23f
11:00pm 22 26 mph 1027.1mb 23f
10:50pm 22 26 mph 1027.1mb 23f
10:40pm 23 29 mph 1027.1mb 23f
10:30pm 24 30 mph 1026.8mb 23f
10:21pm 28
mph
1026.8mb 23f
10:20pm 28 33 mph 1026.4mb 23f
10:10pm 28 33 mph 1026.4mb 24f
10:00pm 21 24 mph 1026.4mb 24f
9:50pm 22 29 mph 1026.1mb 24f
9:40pm 22 25 mph 1026.1mb 24f
9:30pm 21 31 mph 1025.7mb 25f
9:20pm 22
mph
1025.4mb 25f
9:10pm 26 32 mph 1025.4mb 26f
9:00pm 23 31 mph 1025.1mb 25f
8:50pm 24 30 mph 1025.1mb 26f
8:40pm 28 31 mph 1024.7mb 26f
8:30pm 25 31 mph 1024.7mb 26f
8:22pm 26 30 mph 1024.4mb 26f
8:20pm 29 34 mph 1024.4mb 26f
8:10pm 30 33 mph 1024mb 27f
8:00pm 24 29 mph 1024mb 28f
7:50pm 25 33 mph 1023.7mb 28f
7:40pm 31 34 mph 1023.4mb 28f
7:21pm 20 30 mph 1023mb 29f
7:20pm 20 26 mph 1023.4mb 29f
7:10pm 23 28 mph 1023mb 29f
7:00pm 24 31 mph 1023mb 30f
6:30pm 22 31 mph 1022.7mb 31f
6:20pm 25 28 mph 1022.4mb 31f
6:19pm 24
mph
1022.4mb 31f
6:10pm 25 33 mph 1022.4mb 31f
6:04pm 26 30 mph 1022mb 31f
6:00pm 32 37 mph 1021.7mb 31f
5:50pm 30 37 mph 1021.7mb 32f
5:40pm 34 39 mph 1021.3mb 32f
5:30pm 34 40 mph 1021mb 33f
5:20pm 33 38 mph 1021mb 33f
5:18pm 36
mph
1020.7mb 33f
5:10pm 32 41 mph 1020.7mb 34f
5:04pm 33 41 mph 1020.3mb 34f
5:00pm 32 38 mph 1020.7mb 34f
4:50pm 29 33 mph 1020.3mb 34f
4:40pm 25 31 mph 1020.3mb 34f
4:35pm 24 30 mph 1020.3mb 34f
4:30pm 25 34 mph 1020.3mb 34f
4:20pm 29 33 mph 1020.3mb 34f
4:10pm 32 40 mph 1020mb 34f
4:00pm 24 32 mph 1019.6mb 35f
3:50pm 26 32 mph 1019.6mb 35f
3:40pm 23 31 mph 1019.6mb 35f
3:34pm 25 29 mph 1019.6mb 35f
3:30pm 26 34 mph 1019.3mb 35f
3:20pm 29 36 mph 1019mb 35f
3:10pm 25 36 mph 1019.3mb 36f
3:00pm 29 36 mph 1019.3mb 36f
2:50pm 33 37 mph 1019mb 36f
2:40pm 30 36 mph 1018.6mb 37f
2:31pm 28 30 mph 1018.6mb 38f
2:30pm 28 32 mph 1018.6mb 38f
2:20pm 25 31 mph 1018.6mb 39f
2:17pm 25
mph
1018.6mb 39f
2:10pm 28 32 mph 1018.3mb 39f
2:00pm 30 34 mph 1018.3mb 40f
1:50pm 22 26 mph 1018.3mb 40f
1:40pm 26 32 mph 1018.3mb 40f
1:30pm 26 29 mph 1017.9mb 40f
1:20pm 24 30 mph 1017.9mb 40f
1:10pm 25 33 mph 1017.9mb 40f
1:00pm 25 30 mph 1017.9mb 40f
12:50pm 25 31 mph 1017.9mb 41f
12:40pm 20 33 mph 1017.9mb 41f
12:30pm 24 30 mph 1017.9mb 41f
12:29pm 22 30 mph 1017.6mb 41f
12:20pm 24 31 mph 1017.9mb 42f
12:16pm 28
mph
1017.6mb 42f
12:10pm 22 31 mph 1017.6mb 42f
12:00pm 21 28 mph 1017.6mb 42f
11:50am 20 25 mph 1017.6mb 42f
11:40am 22 26 mph 1017.6mb 42f
11:30am 26 32 mph 1017.6mb 42f
11:26am 22 30 mph 1017.3mb 42f
11:20am 17 25 mph 1017.6mb 42f
11:10am 23 28 mph 1017.3mb 42f
11:00am 24 26 mph 1017.3mb 42f
10:50am 16 20 mph 1017.3mb 41f
10:40am 17 24 mph 1017.3mb 41f
10:30am 24 28 mph 1017.3mb 41f
10:20am 22 26 mph 1017.3mb 41f
10:15am 23 28 mph 1017.3mb 41f
10:10am 17 24 mph 1017.3mb 41f
10:00am 23 28 mph 1017.3mb 41f
9:50am 22 25 mph 1016.9mb 41f
9:40am 16 20 mph 1017.3mb 40f
9:30am 16 18 mph 1017.3mb 40f
9:20am 14 18 mph 1017.3mb 37f
9:15am 16 18 mph 1017.3mb 37f
9:10am 17 18 mph 1017.3mb 35f
9:00am 15 16 mph 1017.3mb 34f
8:50am 14 16 mph 1017.3mb 34f
8:40am 14 15 mph 1017.3mb 34f
8:30am 13 15 mph 1017.3mb 33f
8:20am 14 15 mph 1017.3mb 33f
8:15am 13 15 mph 1017.3mb 33f
8:10am 13 14 mph 1017.3mb 33f
8:00am 13
mph
1017.3mb 33f
7:50am 11 14 mph 1017.3mb 33f
7:40am 13 15 mph 1017.3mb 33f
7:30am 14 15 mph 1017.3mb 33f
7:20am 14 15 mph 1017.3mb 33f
7:14am 14 15 mph 1017.3mb 33f
7:10am 14 15 mph 1017.3mb 33f
7:00am 11 13 mph 1017.3mb 33f
6:50am 9
mph
1017.3mb 33f
6:40am 9
mph
1017.3mb 33f
6:30am 8 9 mph 1017.3mb 33f
6:20am 7 9 mph 1017.3mb 33f
6:14am 8 9 mph 1017.3mb 34f
6:10am 8 9 mph 1017.3mb 34f
6:00am 7 8 mph 1017.3mb 34f
5:50am 7 9 mph 1017.3mb 34f
5:40am 8
mph
1017.3mb 35f
5:30am 7 9 mph 1017.3mb 35f
5:20am 6 7 mph 1017.3mb 35f
5:13am 7
mph
1017.3mb 35f
5:10am 6 7 mph 1017.3mb 35f
5:00am 6
mph
1017.3mb 35f
4:50am 5
mph
1016.9mb 35f
4:40am 3 5 mph 1017.3mb 35f
4:30am 2 3 mph 1016.9mb 35f
4:20am  -  1 mph 1017.3mb 35f
4:13am  -  8 mph 1017.3mb 35f
4:10am  -  2 mph 1017.3mb 35f
4:00am 2 6 mph 1017.3mb 36f
3:50am 6 7 mph 1017.3mb 36f
3:40am 5 7 mph 1017.3mb 36f
3:30am 6 7 mph 1017.3mb 36f
3:20am 6 8 mph 1017.6mb 36f
3:13am 8 11 mph 1017.6mb 37f
3:10am 8 9 mph 1017.6mb 37f
3:00am 8 9 mph 1017.3mb 37f
2:50am 9
mph
1017.3mb 37f
2:40am 6 10 mph 1017.6mb 37f
2:30am 10 11 mph 1017.6mb 38f
2:20am 11
mph
1017.6mb 39f
2:12am 10 11 mph 1017.6mb 39f
2:10am 10 11 mph 1017.6mb 39f
2:00am 10 11 mph 1017.6mb 39f
1:50am 10
mph
1017.6mb 39f
1:40am 10
mph
1017.6mb 39f
1:30am 9
mph
1017.6mb 40f
1:20am 7 8 mph 1017.6mb 40f
1:12am 7 10 mph 1017.6mb 40f
1:10am 8 9 mph 1017.6mb 40f
1:00am 9 10 mph 1017.6mb 41f
12:50am 9 10 mph 1017.6mb 40f
12:40am 8 9 mph 1017.6mb 40f
12:30am 9
mph
1017.6mb 40f
12:20am 8 9 mph 1017.6mb 40f
12:11am 8 9 mph 1017.6mb 40f
12:10am 8 9 mph 1017.6mb 40f
12:00am 8
mph
1017.6mb 40f
Mon 03/20 11:50pm 8
mph
1017.3mb 41f
11:40pm 7
mph
1017.3mb 41f
11:30pm 6
mph
1017.3mb 41f
11:20pm 5 6 mph 1017.3mb 41f
11:11pm 5 8 mph 1017.6mb 41f
11:10pm 5
mph
1017.6mb 41f
11:00pm 5 6 mph 1017.6mb 41f
10:50pm 6 7 mph 1017.6mb 41f
10:40pm 6 7 mph 1017.6mb 41f
10:30pm 7 8 mph 1017.6mb 40f
10:20pm 8
mph
1017.6mb 40f
10:11pm 6 9 mph 1017.6mb 39f
10:10pm 6 8 mph 1017.6mb 39f
10:00pm 6
mph
1017.6mb 39f
9:50pm 5 6 mph 1017.6mb 40f
9:40pm 5 9 mph 1017.6mb 40f
9:30pm 3 5 mph 1017.9mb 40f
9:20pm 6 7 mph 1017.9mb 41f
9:10pm 7
mph
1017.9mb 41f
9:00pm 5 8 mph 1017.9mb 41f
8:50pm 7 9 mph 1017.9mb 41f
8:40pm 9 11 mph 1018.3mb 40f
8:30pm 10 14 mph 1018.3mb 40f
8:20pm 14
mph
1018.3mb 37f
8:10pm 8
mph
1017.9mb 38f
8:00pm 8 10 mph 1017.6mb 40f
7:50pm 9 11 mph 1017.6mb 40f
7:40pm 11
mph
1017.6mb 40f
7:30pm 11
mph
1017.3mb 38f
7:20pm 11 13 mph 1016.9mb 40f
7:10pm 13 14 mph 1016.9mb 40f
7:09pm 14 17 mph 1016.9mb 40f
7:00pm 15 17 mph 1016.6mb 38f
6:50pm 11 13 mph 1016.6mb 40f
6:30pm 13 14 mph 1015.9mb 44f
6:20pm 13
mph
1015.9mb 44f
6:10pm 10 13 mph 1015.9mb 44f
6:09pm 11 13 mph 1015.9mb 44f
6:00pm 11
mph
1016.3mb 44f
5:50pm 9 10 mph 1016.3mb 44f
5:40pm 9
mph
1016.6mb 45f
5:30pm 6 7 mph 1016.9mb 44f
5:20pm 6 8 mph 1016.9mb 44f